createdAt,value
2023-01-13T00:01:30.973Z,21.65
2023-01-13T00:03:59.797Z,19.95
2023-01-13T00:06:28.637Z,18.92
2023-01-13T00:08:57.533Z,20.60
2023-01-13T00:11:29.869Z,20.52
2023-01-13T00:13:58.796Z,20.83
2023-01-13T00:16:27.673Z,18.83
2023-01-13T00:18:56.377Z,19.75
2023-01-13T00:21:25.556Z,19.75
2023-01-13T00:23:55.491Z,20.55
2023-01-13T00:26:32.012Z,19.55
2023-01-13T00:29:01.536Z,19.75
2023-01-13T00:31:31.169Z,19.85
2023-01-13T00:34:01.130Z,18.00
2023-01-13T00:36:30.775Z,19.00
2023-01-13T00:39:00.024Z,18.48
2023-01-13T00:41:29.545Z,19.00
2023-01-13T00:43:58.206Z,19.33
2023-01-13T00:46:26.772Z,18.95
2023-01-13T00:48:55.741Z,19.63
2023-01-13T00:51:24.165Z,19.38
2023-01-13T00:53:53.760Z,18.05
2023-01-13T00:56:40.967Z,18.73
2023-01-13T00:59:13.022Z,18.13
2023-01-13T01:01:42.587Z,21.40
2023-01-13T01:04:13.610Z,17.52
2023-01-13T01:06:42.469Z,17.92
2023-01-13T01:09:15.304Z,17.75
2023-01-13T01:11:44.735Z,18.85
2023-01-13T01:14:16.418Z,20.08
2023-01-13T01:16:45.264Z,18.60
2023-01-13T01:19:15.169Z,18.20
2023-01-13T01:21:43.792Z,19.17
2023-01-13T01:24:12.768Z,18.88
2023-01-13T01:26:44.472Z,19.08
2023-01-13T01:29:17.735Z,18.70
2023-01-13T01:31:49.396Z,19.48
2023-01-13T01:34:20.293Z,20.08
2023-01-13T01:36:49.031Z,19.65
2023-01-13T01:39:17.197Z,18.67
2023-01-13T01:42:06.130Z,19.70
2023-01-13T01:44:46.103Z,18.20
2023-01-13T01:47:18.349Z,18.02
2023-01-13T01:49:48.776Z,20.02
2023-01-13T01:52:21.175Z,20.08
2023-01-13T01:55:04.548Z,18.38
2023-01-13T01:57:46.433Z,18.42
2023-01-13T02:00:19.016Z,17.88
2023-01-13T02:02:52.239Z,17.90
2023-01-13T02:05:22.269Z,19.05
2023-01-13T02:07:53.399Z,18.25
2023-01-13T02:10:24.664Z,17.02
2023-01-13T02:12:53.694Z,17.58
2023-01-13T02:15:32.468Z,16.38
2023-01-13T02:18:10.025Z,16.48
2023-01-13T02:20:56.633Z,18.10
2023-01-13T02:23:55.489Z,17.23
2023-01-13T02:26:41.359Z,16.10
2023-01-13T02:29:58.606Z,16.27
2023-01-13T02:32:27.390Z,15.98
2023-01-13T02:35:22.706Z,16.40
2023-01-13T02:37:52.033Z,16.10
2023-01-13T02:40:32.988Z,16.95
2023-01-13T02:43:32.073Z,16.35
2023-01-13T02:46:09.842Z,15.48
2023-01-13T02:48:40.047Z,15.57
2023-01-13T02:51:11.916Z,15.25
2023-01-13T02:53:44.532Z,15.18
2023-01-13T02:56:14.467Z,16.83
2023-01-13T02:58:44.754Z,14.73
2023-01-13T03:01:13.466Z,15.02
2023-01-13T03:03:41.917Z,15.82
2023-01-13T03:06:27.899Z,16.35
2023-01-13T03:09:13.789Z,15.40
2023-01-13T03:12:12.608Z,14.85
2023-01-13T03:14:46.660Z,14.45
2023-01-13T03:17:43.643Z,13.98
2023-01-13T03:20:20.272Z,15.00
2023-01-13T03:23:09.900Z,14.40
2023-01-13T03:25:57.133Z,13.07
2023-01-13T03:28:31.652Z,13.82
2023-01-13T03:31:05.418Z,14.52
2023-01-13T03:33:40.886Z,13.85
2023-01-13T03:36:10.998Z,14.45
2023-01-13T03:38:44.128Z,14.25
2023-01-13T03:41:21.643Z,14.95
2023-01-13T03:44:22.992Z,14.70
2023-01-13T03:46:54.533Z,16.58
2023-01-13T03:49:26.524Z,15.10
2023-01-13T03:52:00.569Z,15.43
2023-01-13T03:54:32.147Z,15.13
2023-01-13T03:57:10.463Z,13.88
2023-01-13T03:59:43.546Z,15.85
2023-01-13T04:02:27.804Z,15.05
2023-01-13T04:05:05.666Z,14.75
2023-01-13T04:07:52.581Z,15.30
2023-01-13T04:10:27.835Z,15.40
2023-01-13T04:13:08.270Z,15.27
2023-01-13T04:15:42.898Z,14.93
2023-01-13T04:18:17.967Z,14.88
2023-01-13T04:20:48.541Z,16.02
2023-01-13T04:23:18.515Z,15.32
2023-01-13T04:25:48.143Z,13.90
2023-01-13T04:28:18.094Z,14.75
2023-01-13T04:30:46.733Z,16.45
2023-01-13T04:33:16.477Z,16.25
2023-01-13T04:35:46.312Z,16.52
2023-01-13T04:38:16.308Z,15.23
2023-01-13T04:40:45.375Z,16.25
2023-01-13T04:43:14.529Z,15.32
2023-01-13T04:45:43.590Z,15.75
2023-01-13T04:48:12.417Z,15.35
2023-01-13T04:50:41.191Z,14.65
2023-01-13T04:53:09.777Z,15.15
2023-01-13T04:55:38.449Z,15.43
2023-01-13T04:58:11.669Z,17.40
2023-01-13T05:00:40.188Z,14.18
2023-01-13T05:03:09.076Z,15.63
2023-01-13T05:05:37.726Z,15.65
2023-01-13T05:08:06.825Z,16.42
2023-01-13T05:10:35.478Z,14.73
2023-01-13T05:13:22.421Z,14.48
2023-01-13T05:16:11.150Z,16.08
2023-01-13T05:18:39.652Z,16.20
2023-01-13T05:21:28.168Z,15.63
2023-01-13T05:24:15.335Z,13.38
2023-01-13T05:26:44.157Z,15.25
2023-01-13T05:29:12.820Z,15.20
2023-01-13T05:31:41.090Z,16.23
2023-01-13T05:34:09.648Z,16.30
2023-01-13T05:36:38.438Z,15.25
2023-01-13T05:39:07.242Z,14.50
2023-01-13T05:41:54.919Z,15.30
2023-01-13T05:44:23.219Z,16.45
2023-01-13T05:46:51.885Z,15.88
2023-01-13T05:49:20.527Z,14.55
2023-01-13T05:51:49.107Z,14.35
2023-01-13T05:54:17.723Z,15.48
2023-01-13T05:56:46.325Z,15.82
2023-01-13T05:59:14.999Z,15.43
2023-01-13T06:01:43.551Z,16.73
2023-01-13T06:04:12.325Z,15.73
2023-01-13T06:06:41.172Z,16.17
2023-01-13T06:09:09.315Z,15.38
2023-01-13T06:11:37.900Z,15.20
2023-01-13T06:14:06.183Z,16.75
2023-01-13T06:16:34.827Z,15.07
2023-01-13T06:19:03.416Z,15.98
2023-01-13T06:21:33.304Z,16.67
2023-01-13T06:24:01.815Z,15.82
2023-01-13T06:26:32.659Z,16.08
2023-01-13T06:29:01.236Z,14.82
2023-01-13T06:31:32.621Z,16.33
2023-01-13T06:34:07.443Z,16.42
2023-01-13T06:36:43.114Z,15.00
2023-01-13T06:39:12.726Z,16.38
2023-01-13T06:42:00.666Z,14.90
2023-01-13T06:44:29.310Z,14.80
2023-01-13T06:46:58.001Z,14.55
2023-01-13T06:49:26.954Z,14.93
2023-01-13T06:51:55.613Z,13.13
2023-01-13T06:54:24.369Z,14.77
2023-01-13T06:56:53.446Z,14.18
2023-01-13T06:59:21.984Z,16.13
2023-01-13T07:01:50.352Z,13.52
2023-01-13T07:04:19.898Z,16.67
2023-01-13T07:06:48.548Z,15.48
2023-01-13T07:09:16.775Z,15.70
2023-01-13T07:11:45.091Z,16.85
2023-01-13T07:14:32.198Z,15.48
2023-01-13T07:17:00.922Z,14.88
2023-01-13T07:19:29.524Z,12.98
2023-01-13T07:21:58.157Z,14.57
2023-01-13T07:24:26.550Z,16.45
2023-01-13T07:26:55.249Z,13.55
2023-01-13T07:29:23.942Z,14.50
2023-01-13T07:31:52.426Z,14.68
2023-01-13T07:34:20.731Z,15.60
2023-01-13T07:36:48.953Z,14.63
2023-01-13T07:39:17.468Z,15.18
2023-01-13T07:42:03.897Z,14.20
2023-01-13T07:44:32.220Z,13.80
2023-01-13T07:47:00.845Z,15.05
2023-01-13T07:49:29.806Z,14.60
2023-01-13T07:51:58.076Z,14.45
2023-01-13T07:54:39.635Z,14.55
2023-01-13T07:57:09.233Z,15.13
2023-01-13T07:59:38.210Z,13.52
2023-01-13T08:02:07.020Z,14.75
2023-01-13T08:04:36.349Z,14.48
2023-01-13T08:07:05.815Z,14.75
2023-01-13T08:09:34.654Z,14.73
2023-01-13T08:12:21.794Z,13.40
2023-01-13T08:14:52.231Z,14.07
2023-01-13T08:17:21.018Z,14.18
2023-01-13T08:19:49.479Z,14.15
2023-01-13T08:22:17.822Z,12.70
2023-01-13T08:24:46.495Z,14.45
2023-01-13T08:27:15.169Z,14.05
2023-01-13T08:29:43.856Z,13.15
2023-01-13T08:32:12.566Z,14.43
2023-01-13T08:34:41.159Z,14.00
2023-01-13T08:37:09.959Z,15.40
2023-01-13T08:39:37.967Z,14.38
2023-01-13T08:42:06.319Z,13.18
2023-01-13T08:44:35.204Z,15.10
2023-01-13T08:47:04.230Z,15.43
2023-01-13T08:49:32.843Z,15.70
2023-01-13T08:52:01.554Z,14.88
2023-01-13T08:54:30.082Z,14.80
2023-01-13T08:56:58.836Z,14.85
2023-01-13T08:59:27.480Z,12.75
2023-01-13T09:01:56.387Z,14.73
2023-01-13T09:04:26.677Z,13.73
2023-01-13T09:06:56.285Z,13.40
2023-01-13T09:09:24.863Z,13.27
2023-01-13T09:12:11.264Z,14.32
2023-01-13T09:14:41.192Z,12.90
2023-01-13T09:17:09.657Z,14.23
2023-01-13T09:19:38.431Z,14.23
2023-01-13T09:22:07.065Z,15.07
2023-01-13T09:24:35.744Z,14.77
2023-01-13T09:27:04.444Z,13.77
2023-01-13T09:29:33.104Z,13.23
2023-01-13T09:32:11.591Z,12.95
2023-01-13T09:34:58.639Z,13.70
2023-01-13T09:37:28.853Z,14.10
2023-01-13T09:39:58.007Z,13.43
2023-01-13T09:43:05.325Z,13.77
2023-01-13T09:46:01.725Z,13.60
2023-01-13T09:48:33.343Z,12.77
2023-01-13T09:51:15.892Z,12.93
2023-01-13T09:53:57.242Z,13.82
2023-01-13T09:56:26.401Z,14.57
2023-01-13T09:58:55.388Z,13.98
2023-01-13T10:01:47.958Z,14.40
2023-01-13T10:04:17.551Z,13.43
2023-01-13T10:06:50.238Z,14.02
2023-01-13T10:09:41.219Z,13.57
2023-01-13T10:12:36.251Z,13.82
2023-01-13T10:15:05.596Z,13.68
2023-01-13T10:17:48.199Z,14.75
2023-01-13T10:20:55.496Z,12.40
2023-01-13T10:23:36.543Z,13.35
2023-01-13T10:26:25.493Z,15.38
2023-01-13T10:28:56.257Z,13.65
2023-01-13T10:31:25.633Z,14.27
2023-01-13T10:34:07.471Z,13.30
2023-01-13T10:36:36.225Z,13.73
2023-01-13T10:39:16.733Z,15.13
2023-01-13T10:41:46.022Z,14.88
2023-01-13T10:44:19.469Z,14.07
2023-01-13T10:46:56.753Z,13.80
2023-01-13T10:49:35.221Z,13.65
2023-01-13T10:52:05.258Z,14.25
2023-01-13T10:54:34.163Z,14.45
2023-01-13T10:57:17.427Z,14.15
2023-01-13T10:59:46.046Z,13.85
2023-01-13T11:02:27.007Z,14.52
2023-01-13T11:04:58.317Z,16.15
2023-01-13T11:07:36.325Z,15.85
2023-01-13T11:10:10.861Z,14.25
2023-01-13T11:13:01.084Z,14.35
2023-01-13T11:15:56.742Z,14.88
2023-01-13T11:19:03.591Z,15.07
2023-01-13T11:21:39.103Z,14.98
2023-01-13T11:24:13.599Z,15.95
2023-01-13T11:26:57.376Z,16.17
2023-01-13T11:32:18.600Z,14.02
2023-01-13T11:34:50.098Z,14.70
2023-01-13T11:37:30.481Z,14.68
2023-01-13T11:40:16.474Z,15.60
2023-01-13T11:42:55.940Z,15.88
2023-01-13T11:45:43.269Z,16.13
2023-01-13T11:48:17.849Z,15.48
2023-01-13T11:50:55.235Z,15.40
2023-01-13T11:53:54.312Z,16.02
2023-01-13T11:56:29.641Z,15.20
2023-01-13T11:59:22.816Z,17.02
2023-01-13T12:02:07.088Z,15.37
2023-01-13T12:04:54.836Z,15.68
2023-01-13T12:07:38.096Z,16.65
2023-01-13T12:10:42.437Z,15.60
2023-01-13T12:13:32.095Z,15.43
2023-01-13T12:16:13.488Z,15.15
2023-01-13T12:19:08.428Z,16.10
2023-01-13T12:21:59.773Z,15.00
2023-01-13T12:24:36.309Z,13.88
2023-01-13T12:27:31.769Z,15.43
2023-01-13T12:30:03.772Z,16.08
2023-01-13T12:32:37.906Z,16.30
2023-01-13T12:35:46.816Z,14.90
2023-01-13T12:38:34.366Z,15.73
2023-01-13T12:41:14.871Z,15.50
2023-01-13T12:44:06.318Z,16.20
2023-01-13T12:46:36.442Z,14.70
2023-01-13T12:49:06.109Z,15.82
2023-01-13T12:51:36.716Z,15.98
2023-01-13T12:54:45.749Z,17.27
2023-01-13T12:57:28.261Z,15.65
2023-01-13T13:00:02.385Z,14.38
2023-01-13T13:02:35.193Z,14.13
2023-01-13T13:05:16.040Z,14.73
2023-01-13T13:07:50.941Z,14.38
2023-01-13T13:10:46.016Z,14.77
2023-01-13T13:13:49.982Z,15.60
2023-01-13T13:16:27.700Z,13.90
2023-01-13T13:19:22.696Z,15.20
2023-01-13T13:22:20.363Z,14.80
2023-01-13T13:24:58.864Z,14.75
2023-01-13T13:27:30.367Z,15.48
2023-01-13T13:30:19.787Z,15.07
2023-01-13T13:32:48.896Z,15.32
2023-01-13T13:35:44.438Z,14.55
2023-01-13T13:39:00.373Z,13.82
2023-01-13T13:41:47.911Z,12.50
2023-01-13T13:44:47.202Z,14.90
2023-01-13T13:47:15.989Z,14.90
2023-01-13T13:49:50.919Z,15.98
2023-01-13T13:52:43.055Z,15.07
2023-01-13T13:55:20.371Z,16.13
2023-01-13T13:57:51.713Z,15.70
2023-01-13T14:00:36.518Z,15.20
2023-01-13T14:03:08.712Z,14.75
2023-01-13T14:05:38.312Z,16.02
2023-01-13T14:08:19.550Z,15.05
2023-01-13T14:10:48.378Z,14.80
2023-01-13T14:13:25.015Z,15.65
2023-01-13T14:16:02.130Z,13.55
2023-01-13T14:18:33.629Z,13.73
2023-01-13T14:21:04.621Z,16.33
2023-01-13T14:23:34.977Z,15.02
2023-01-13T14:26:14.204Z,15.88
2023-01-13T14:28:43.261Z,15.27
2023-01-13T14:31:12.472Z,16.27
2023-01-13T14:33:45.711Z,14.70
2023-01-13T14:36:23.205Z,15.57
2023-01-13T14:39:06.948Z,15.80
2023-01-13T14:41:55.124Z,15.52
2023-01-13T14:44:37.760Z,15.65
2023-01-13T14:47:24.946Z,15.88
2023-01-13T14:50:03.723Z,14.13
2023-01-13T14:52:48.857Z,15.43
2023-01-13T14:55:25.655Z,15.38
2023-01-13T14:57:54.424Z,15.05
2023-01-13T15:00:25.546Z,15.15
2023-01-13T15:03:00.649Z,14.55
2023-01-13T15:05:29.483Z,16.73
2023-01-13T15:08:00.311Z,15.55
2023-01-13T15:10:34.599Z,15.55
2023-01-13T15:13:05.258Z,15.20
2023-01-13T15:15:39.362Z,16.08
2023-01-13T15:18:14.842Z,16.20
2023-01-13T15:20:43.758Z,17.67
2023-01-13T15:23:12.782Z,18.33
2023-01-13T15:25:42.678Z,17.35
2023-01-13T15:28:24.132Z,16.58
2023-01-13T15:30:55.313Z,16.38
2023-01-13T15:33:24.596Z,17.35
2023-01-13T15:35:54.649Z,17.08
2023-01-13T15:38:25.121Z,16.55
2023-01-13T15:40:54.838Z,16.65
2023-01-13T15:43:43.488Z,14.75
2023-01-13T15:46:33.660Z,17.02
2023-01-13T15:49:05.146Z,15.13
2023-01-13T15:51:33.451Z,16.58
2023-01-13T15:54:03.897Z,16.42
2023-01-13T15:56:32.713Z,14.25
2023-01-13T15:59:01.537Z,16.80
2023-01-13T16:01:30.121Z,16.63
2023-01-13T16:03:58.841Z,17.42
2023-01-13T16:06:34.320Z,17.42
2023-01-13T16:09:03.727Z,17.25
2023-01-13T16:11:32.459Z,14.93
2023-01-13T16:14:01.539Z,16.75
2023-01-13T16:16:30.968Z,16.50
2023-01-13T16:18:59.649Z,17.02
2023-01-13T16:21:28.308Z,17.85
2023-01-13T16:23:56.946Z,17.05
2023-01-13T16:26:37.530Z,17.15
2023-01-13T16:29:07.384Z,16.42
2023-01-13T16:31:36.309Z,15.82
2023-01-13T16:34:05.476Z,16.55
2023-01-13T16:36:37.565Z,15.50
2023-01-13T16:39:07.384Z,16.90
2023-01-13T16:41:36.051Z,18.33
2023-01-13T16:44:07.325Z,18.25
2023-01-13T16:46:35.926Z,16.83
2023-01-13T16:49:07.222Z,18.00
2023-01-13T16:51:35.566Z,17.10
2023-01-13T16:54:04.187Z,17.13
2023-01-13T16:56:34.415Z,15.98
2023-01-13T16:59:09.027Z,17.48
2023-01-13T17:01:40.852Z,16.63
2023-01-13T17:04:15.963Z,16.48
2023-01-13T17:06:50.264Z,16.40
2023-01-13T17:09:24.990Z,16.65
2023-01-13T17:11:54.088Z,18.02
2023-01-13T17:14:24.714Z,16.02
2023-01-13T17:16:55.311Z,17.67
2023-01-13T17:19:24.597Z,18.27
2023-01-13T17:21:53.298Z,19.17
2023-01-13T17:24:22.191Z,19.20
2023-01-13T17:26:52.808Z,19.23
2023-01-13T17:29:26.605Z,18.38
2023-01-13T17:31:55.285Z,18.48
2023-01-13T17:34:23.829Z,19.05
2023-01-13T17:36:52.581Z,16.92
2023-01-13T17:39:25.008Z,16.15
2023-01-13T17:41:54.770Z,18.02
2023-01-13T17:44:24.711Z,18.67
2023-01-13T17:46:53.410Z,18.42
2023-01-13T17:49:23.185Z,19.17
2023-01-13T17:51:52.831Z,18.00
2023-01-13T17:54:21.942Z,19.83
2023-01-13T17:56:50.761Z,18.45
2023-01-13T17:59:21.269Z,17.92
2023-01-13T18:01:50.175Z,18.83
2023-01-13T18:04:21.686Z,19.35
2023-01-13T18:06:50.222Z,20.42
2023-01-13T18:09:19.369Z,19.90
2023-01-13T18:11:48.193Z,19.27
2023-01-13T18:14:16.698Z,21.58
2023-01-13T18:16:45.432Z,19.05
2023-01-13T18:19:32.311Z,20.27
2023-01-13T18:22:19.239Z,19.85
2023-01-13T18:25:06.512Z,19.05
2023-01-13T18:27:37.022Z,17.95
2023-01-13T18:30:07.554Z,19.63
2023-01-13T18:32:35.702Z,19.23
2023-01-13T18:35:07.352Z,21.23
2023-01-13T18:37:37.149Z,19.65
2023-01-13T18:40:06.191Z,21.70
2023-01-13T18:42:53.131Z,19.58
2023-01-13T18:45:28.109Z,20.52
2023-01-13T18:47:58.227Z,19.35
2023-01-13T18:50:27.336Z,19.65
2023-01-13T18:52:55.948Z,21.70
2023-01-13T18:55:24.819Z,18.98
2023-01-13T18:57:54.488Z,16.58
2023-01-13T19:00:23.763Z,19.30
2023-01-13T19:05:35.993Z,20.15
2023-01-13T19:08:05.816Z,20.08
2023-01-13T19:10:34.558Z,24.48
2023-01-13T19:13:02.917Z,21.88
2023-01-13T19:15:31.909Z,18.67
2023-01-13T19:18:00.808Z,19.02
2023-01-13T19:20:29.396Z,18.27
2023-01-13T19:22:58.025Z,17.30
2023-01-13T19:25:26.598Z,15.82
2023-01-13T19:27:55.253Z,16.63
2023-01-13T19:30:23.939Z,17.60
2023-01-13T19:32:52.691Z,17.20
2023-01-13T19:35:21.294Z,16.80
2023-01-13T19:37:50.385Z,17.10
2023-01-13T19:40:19.218Z,19.50
2023-01-13T19:43:06.117Z,21.58
2023-01-13T19:45:36.523Z,21.95
2023-01-13T19:48:07.032Z,22.90
2023-01-13T19:50:42.005Z,23.58
2023-01-13T19:53:17.474Z,25.00
2023-01-13T19:55:50.583Z,26.77
2023-01-13T19:58:22.458Z,27.80
2023-01-13T20:00:52.154Z,32.78
2023-01-13T20:03:25.479Z,30.15
2023-01-13T20:05:54.909Z,30.83
2023-01-13T20:08:24.439Z,28.90
2023-01-13T20:11:12.984Z,30.40
2023-01-13T20:13:41.521Z,28.73
2023-01-13T20:16:10.594Z,31.13
2023-01-13T20:18:39.409Z,29.45
2023-01-13T20:21:08.885Z,33.03
2023-01-13T20:23:37.659Z,31.88
2023-01-13T20:26:09.427Z,35.03
2023-01-13T20:28:40.777Z,36.53
2023-01-13T20:31:11.529Z,43.88
2023-01-13T20:33:41.749Z,43.55
2023-01-13T20:36:10.396Z,45.92
2023-01-13T20:38:39.347Z,41.05
2023-01-13T20:41:27.291Z,40.63
2023-01-13T20:43:56.040Z,40.08
2023-01-13T20:46:24.861Z,38.45
2023-01-13T20:48:53.587Z,39.63
2023-01-13T20:51:21.974Z,40.80
2023-01-13T20:53:50.945Z,41.88
2023-01-13T20:56:19.755Z,39.90
2023-01-13T20:58:48.427Z,46.65
2023-01-13T21:01:16.997Z,49.53
2023-01-13T21:03:46.027Z,49.40
2023-01-13T21:06:17.222Z,50.78
2023-01-13T21:08:47.699Z,46.72
2023-01-13T21:11:18.076Z,41.53
2023-01-13T21:14:04.911Z,44.53
2023-01-13T21:16:33.577Z,45.22
2023-01-13T21:19:12.029Z,45.38
2023-01-13T21:21:40.393Z,44.75
2023-01-13T21:24:08.988Z,42.03
2023-01-13T21:26:38.819Z,45.40
2023-01-13T21:29:08.095Z,44.78
2023-01-13T21:31:36.698Z,50.20
2023-01-13T21:34:06.427Z,43.83
2023-01-13T21:36:35.091Z,40.40
2023-01-13T21:39:03.628Z,38.30
2023-01-13T21:41:50.804Z,34.47
2023-01-13T21:44:40.125Z,29.98
2023-01-13T21:47:37.823Z,29.88
2023-01-13T21:50:09.879Z,27.00
2023-01-13T21:52:39.063Z,22.95
2023-01-13T21:55:26.275Z,26.27
2023-01-13T21:57:56.183Z,24.00
2023-01-13T22:00:32.816Z,23.67
2023-01-13T22:03:08.198Z,23.55
2023-01-13T22:05:37.331Z,21.88
2023-01-13T22:08:06.733Z,23.35
2023-01-13T22:10:35.619Z,21.27
2023-01-13T22:13:24.241Z,22.60
2023-01-13T22:15:52.613Z,21.73
2023-01-13T22:18:21.199Z,24.95
2023-01-13T22:20:50.573Z,25.63
2023-01-13T22:23:19.257Z,28.10
2023-01-13T22:25:47.770Z,28.08
2023-01-13T22:28:25.259Z,26.83
2023-01-13T22:30:54.527Z,22.40
2023-01-13T22:33:23.416Z,22.27
2023-01-13T22:35:57.356Z,25.10
2023-01-13T22:38:25.988Z,22.45
2023-01-13T22:41:03.418Z,22.20
2023-01-13T22:43:32.959Z,20.20
2023-01-13T22:46:07.726Z,18.13
2023-01-13T22:48:36.466Z,19.70
2023-01-13T22:51:10.449Z,18.92
2023-01-13T22:53:39.732Z,17.75
2023-01-13T22:56:09.243Z,17.80
2023-01-13T22:58:37.704Z,16.90
2023-01-13T23:01:13.961Z,15.57
2023-01-13T23:03:43.293Z,16.27
2023-01-13T23:06:11.862Z,15.73
2023-01-13T23:08:40.160Z,15.50
2023-01-13T23:11:11.135Z,14.05
2023-01-13T23:13:40.769Z,13.82
2023-01-13T23:16:12.180Z,16.48
2023-01-13T23:18:43.882Z,14.70
2023-01-13T23:21:14.707Z,13.50
2023-01-13T23:23:43.384Z,13.88
2023-01-13T23:26:12.525Z,13.15
2023-01-13T23:28:40.986Z,13.52
2023-01-13T23:31:12.257Z,13.75
2023-01-13T23:33:42.620Z,11.32
2023-01-13T23:36:14.452Z,13.15
2023-01-13T23:38:43.760Z,13.23
2023-01-13T23:41:15.989Z,14.38
2023-01-13T23:43:44.870Z,12.32
2023-01-13T23:46:15.303Z,14.05
2023-01-13T23:48:43.914Z,13.73
2023-01-13T23:51:14.557Z,12.20
2023-01-13T23:53:45.730Z,12.55
2023-01-13T23:56:17.239Z,13.57
2023-01-13T23:58:46.633Z,13.50
